Arlington, MA (02474)

7:16 AM EDT on August 05, 2015 (GMT -0400)
Morningside / Turkey Hill | | Change Station
CLOSE
Current Station
Personal Weather Station
Location: Arlington, MA
Elevation: 259 ft
Nearby Weather Stations

Elev 259 ft 42.43 °N, 71.17 °W | Updated 13 minutes ago

Mostly Cloudy
Mostly Cloudy
63.5 °F
Feels Like 63.5 °F
N
0.0
Wind Variable Wind from NE

Today
High -- | Low -- °F
--% Chance of Precip.
Yesterday
High -- | Low -- °F
Precip. -- in
5:40 AM 7:59 PM
Waning Gibbous, 68% visible
Pressure 29.91 in
Visibility 10.0 miles
Clouds Clear
Dew Point 62 °F
Humidity 94%
Rainfall 0.00 in
Snow Depth Not available.
UV 1 out of 12
Pollen 4.80 out of 12
Air Quality Not available.
Flu Activity Not available.
METAR KBED 051056Z 00000KT 10SM CLR 17/16 A2987 RMK AO2 SLP126 T01670156

More Conditions Fewer Conditions

Pressure 29.91 in
Visibility 10.0 miles
Clouds Clear
Dew Point 62 °F
Humidity 94%
Rainfall 0.00 in
Snow Depth Not available.
UV 1 out of 12
Pollen 4.80 out of 12
Air Quality Not available.
Flu Activity Not available.
METAR KBED 051056Z 00000KT 10SM CLR 17/16 A2987 RMK AO2 SLP126 T01670156

More Conditions Fewer Conditions

10-Day Weather Forecast

×

Almanac

Astronomy

Aug. 05, 2015 Rise Set
Actual Time
Civil Twilight
Nautical Twilight
Astronomical Twilight
Moon
Length of Visible Light
Length of Day
Tomorrow will be .
, % of the Moon is Illuminated

Today's Extremes

State Highs State Lows

Community

WunderPhotos

Upload Photos

1,844,125 photos uploaded!

WunderBlogs® & News

Nearby

Air Quality

  Air Quality AQ Index Pollutant
Not available.

Snow Depth

Station Depth Elevation

Earthquake Activity

City Distance Mag. Time & Date
Minimum magnitude displayed is 2.5.

Coastal Water Temperatures

Place Temperature

Stations

Nearby Weather Stations

Station Location Temp. Windchill Dew Point Humidity Wind Precip. Elev Updated Type